Terminal Aerodrome Forecast
Issued by NWS Huntsville, AL

Home | Current Version | Previous Version | Text Only | Print | Product List | Glossary On
Versions: 1 2 3 4 5 6 7 8 9 10 11 12 13 14 15 16 17 18 19 20 21 22 23 24 25 26 27 28 29 30 31 32 33 34 35 36 37 38 39 40 41 42 43 44 45
000
FTUS44 KHUN 292342
TAFMSL
TAF
KMSL 292342Z 3000/3024 15010KT P6SM VCTS FEW050CB SCT120
     FM300300 17006KT P6SM SCT250
      TEMPO 3008/3012 SCT008 BKN015
     FM301400 19010KT P6SM VCTS SCT035CB SCT050 SCT120=

USA.gov is the U.S. government's official web portal to all federal, state and local government web resources and services.